sensor_id;sensor_type;location;lat;lon;timestamp;P1;durP1;ratioP1;P2;durP2;ratioP2
70967;SDS011;58629;48.808;8.820;2023-03-13T00:00:50;4.83;;;1.87;;
70967;SDS011;58629;48.808;8.820;2023-03-13T00:03:17;4.68;;;1.80;;
70967;SDS011;58629;48.808;8.820;2023-03-13T00:05:42;5.03;;;2.20;;
70967;SDS011;58629;48.808;8.820;2023-03-13T00:08:07;6.17;;;2.00;;
70967;SDS011;58629;48.808;8.820;2023-03-13T00:10:35;5.57;;;2.38;;
70967;SDS011;58629;48.808;8.820;2023-03-13T00:13:01;5.23;;;2.20;;
70967;SDS011;58629;48.808;8.820;2023-03-13T00:15:26;3.77;;;1.80;;
70967;SDS011;58629;48.808;8.820;2023-03-13T00:17:51;5.17;;;2.00;;
70967;SDS011;58629;48.808;8.820;2023-03-13T00:20:17;7.23;;;2.10;;
70967;SDS011;58629;48.808;8.820;2023-03-13T00:22:43;3.58;;;1.65;;
70967;SDS011;58629;48.808;8.820;2023-03-13T00:25:08;3.90;;;1.77;;
70967;SDS011;58629;48.808;8.820;2023-03-13T00:27:34;6.40;;;2.17;;
70967;SDS011;58629;48.808;8.820;2023-03-13T00:29:59;5.97;;;2.10;;
70967;SDS011;58629;48.808;8.820;2023-03-13T00:32:24;7.40;;;2.30;;
70967;SDS011;58629;48.808;8.820;2023-03-13T00:34:50;6.53;;;2.33;;
70967;SDS011;58629;48.808;8.820;2023-03-13T00:37:15;6.87;;;2.40;;
70967;SDS011;58629;48.808;8.820;2023-03-13T00:39:41;8.80;;;2.23;;
70967;SDS011;58629;48.808;8.820;2023-03-13T00:42:06;7.23;;;2.50;;
70967;SDS011;58629;48.808;8.820;2023-03-13T00:44:31;6.87;;;2.53;;
70967;SDS011;58629;48.808;8.820;2023-03-13T00:46:57;6.18;;;2.65;;
70967;SDS011;58629;48.808;8.820;2023-03-13T00:49:22;5.87;;;1.90;;
70967;SDS011;58629;48.808;8.820;2023-03-13T00:51:47;7.07;;;1.93;;
70967;SDS011;58629;48.808;8.820;2023-03-13T00:54:12;6.40;;;2.03;;
70967;SDS011;58629;48.808;8.820;2023-03-13T00:56:38;6.20;;;2.17;;
70967;SDS011;58629;48.808;8.820;2023-03-13T00:59:03;8.03;;;2.30;;
70967;SDS011;58629;48.808;8.820;2023-03-13T01:01:32;6.23;;;2.10;;
70967;SDS011;58629;48.808;8.820;2023-03-13T01:04:03;7.60;;;2.13;;
70967;SDS011;58629;48.808;8.820;2023-03-13T01:06:31;6.13;;;1.88;;
70967;SDS011;58629;48.808;8.820;2023-03-13T01:08:58;4.88;;;1.98;;
70967;SDS011;58629;48.808;8.820;2023-03-13T01:11:25;7.13;;;1.80;;
70967;SDS011;58629;48.808;8.820;2023-03-13T01:13:53;6.57;;;2.00;;
70967;SDS011;58629;48.808;8.820;2023-03-13T01:16:19;5.95;;;1.77;;
70967;SDS011;58629;48.808;8.820;2023-03-13T01:18:49;5.45;;;1.55;;
70967;SDS011;58629;48.808;8.820;2023-03-13T01:21:18;4.80;;;1.60;;
70967;SDS011;58629;48.808;8.820;2023-03-13T01:23:45;6.95;;;1.90;;
70967;SDS011;58629;48.808;8.820;2023-03-13T01:26:11;6.20;;;1.77;;
70967;SDS011;58629;48.808;8.820;2023-03-13T01:28:37;7.82;;;1.65;;
70967;SDS011;58629;48.808;8.820;2023-03-13T01:31:13;5.63;;;1.98;;
70967;SDS011;58629;48.808;8.820;2023-03-13T01:33:41;5.28;;;1.50;;
70967;SDS011;58629;48.808;8.820;2023-03-13T01:36:07;7.03;;;1.57;;
70967;SDS011;58629;48.808;8.820;2023-03-13T01:38:33;6.32;;;1.55;;
70967;SDS011;58629;48.808;8.820;2023-03-13T01:40:58;4.90;;;1.10;;
70967;SDS011;58629;48.808;8.820;2023-03-13T01:43:28;5.63;;;1.40;;
70967;SDS011;58629;48.808;8.820;2023-03-13T01:48:42;4.30;;;1.00;;
70967;SDS011;58629;48.808;8.820;2023-03-13T01:54:12;2.58;;;1.02;;
70967;SDS011;58629;48.808;8.820;2023-03-13T01:56:45;4.73;;;1.27;;
70967;SDS011;58629;48.808;8.820;2023-03-13T01:59:34;4.57;;;1.17;;
70967;SDS011;58629;48.808;8.820;2023-03-13T02:02:06;4.75;;;1.20;;
70967;SDS011;58629;48.808;8.820;2023-03-13T02:04:35;4.45;;;1.35;;
70967;SDS011;58629;48.808;8.820;2023-03-13T02:07:04;3.67;;;1.08;;
70967;SDS011;58629;48.808;8.820;2023-03-13T02:09:34;5.65;;;1.20;;
70967;SDS011;58629;48.808;8.820;2023-03-13T02:12:05;5.07;;;1.10;;
70967;SDS011;58629;48.808;8.820;2023-03-13T02:14:34;4.03;;;1.20;;
70967;SDS011;58629;48.808;8.820;2023-03-13T02:17:02;4.10;;;0.90;;
70967;SDS011;58629;48.808;8.820;2023-03-13T02:19:32;5.13;;;1.40;;
70967;SDS011;58629;48.808;8.820;2023-03-13T02:27:30;3.90;;;0.70;;
70967;SDS011;58629;48.808;8.820;2023-03-13T02:29:56;2.17;;;0.70;;
70967;SDS011;58629;48.808;8.820;2023-03-13T02:32:22;2.47;;;0.50;;
70967;SDS011;58629;48.808;8.820;2023-03-13T02:34:48;2.73;;;0.40;;
70967;SDS011;58629;48.808;8.820;2023-03-13T02:37:16;2.70;;;0.45;;
70967;SDS011;58629;48.808;8.820;2023-03-13T02:39:45;3.20;;;0.40;;
70967;SDS011;58629;48.808;8.820;2023-03-13T02:42:13;2.83;;;0.65;;
70967;SDS011;58629;48.808;8.820;2023-03-13T02:44:41;1.97;;;0.40;;
70967;SDS011;58629;48.808;8.820;2023-03-13T02:47:08;1.58;;;0.40;;
70967;SDS011;58629;48.808;8.820;2023-03-13T02:49:34;2.13;;;0.47;;
70967;SDS011;58629;48.808;8.820;2023-03-13T02:52:04;2.40;;;0.30;;
70967;SDS011;58629;48.808;8.820;2023-03-13T02:55:05;2.42;;;0.30;;
70967;SDS011;58629;48.808;8.820;2023-03-13T02:57:36;1.48;;;0.30;;
70967;SDS011;58629;48.808;8.820;2023-03-13T03:00:02;2.83;;;0.80;;
70967;SDS011;58629;48.808;8.820;2023-03-13T03:02:30;2.90;;;0.60;;
70967;SDS011;58629;48.808;8.820;2023-03-13T03:04:56;1.30;;;0.50;;
70967;SDS011;58629;48.808;8.820;2023-03-13T03:07:21;1.57;;;0.37;;
70967;SDS011;58629;48.808;8.820;2023-03-13T03:09:46;2.80;;;0.50;;
70967;SDS011;58629;48.808;8.820;2023-03-13T03:12:12;1.90;;;0.30;;
70967;SDS011;58629;48.808;8.820;2023-03-13T03:14:37;2.17;;;0.30;;
70967;SDS011;58629;48.808;8.820;2023-03-13T03:17:03;3.00;;;0.52;;
70967;SDS011;58629;48.808;8.820;2023-03-13T03:19:28;1.67;;;0.22;;
70967;SDS011;58629;48.808;8.820;2023-03-13T03:21:53;1.70;;;0.30;;
70967;SDS011;58629;48.808;8.820;2023-03-13T03:24:18;1.83;;;0.40;;
70967;SDS011;58629;48.808;8.820;2023-03-13T03:26:44;0.60;;;0.20;;
70967;SDS011;58629;48.808;8.820;2023-03-13T03:29:09;1.33;;;0.23;;
70967;SDS011;58629;48.808;8.820;2023-03-13T03:31:35;1.00;;;0.30;;
70967;SDS011;58629;48.808;8.820;2023-03-13T03:34:00;1.88;;;0.32;;
70967;SDS011;58629;48.808;8.820;2023-03-13T03:36:25;1.47;;;0.20;;
70967;SDS011;58629;48.808;8.820;2023-03-13T03:38:51;0.67;;;0.20;;
70967;SDS011;58629;48.808;8.820;2023-03-13T03:41:17;1.63;;;0.37;;
70967;SDS011;58629;48.808;8.820;2023-03-13T03:43:43;0.77;;;0.20;;
70967;SDS011;58629;48.808;8.820;2023-03-13T03:46:09;1.58;;;0.40;;
70967;SDS011;58629;48.808;8.820;2023-03-13T03:48:34;1.73;;;0.30;;
70967;SDS011;58629;48.808;8.820;2023-03-13T03:51:00;2.00;;;0.30;;
70967;SDS011;58629;48.808;8.820;2023-03-13T03:53:25;0.63;;;0.30;;
70967;SDS011;58629;48.808;8.820;2023-03-13T03:55:52;1.77;;;0.40;;
70967;SDS011;58629;48.808;8.820;2023-03-13T03:58:17;2.97;;;0.40;;
70967;SDS011;58629;48.808;8.820;2023-03-13T04:00:43;1.13;;;0.30;;
70967;SDS011;58629;48.808;8.820;2023-03-13T04:03:09;0.90;;;0.30;;
70967;SDS011;58629;48.808;8.820;2023-03-13T04:05:34;2.85;;;0.50;;
70967;SDS011;58629;48.808;8.820;2023-03-13T04:07:59;3.07;;;0.43;;
70967;SDS011;58629;48.808;8.820;2023-03-13T04:10:25;1.77;;;0.40;;
70967;SDS011;58629;48.808;8.820;2023-03-13T04:12:50;0.70;;;0.40;;
70967;SDS011;58629;48.808;8.820;2023-03-13T04:15:15;1.13;;;0.30;;
70967;SDS011;58629;48.808;8.820;2023-03-13T04:17:41;1.50;;;0.40;;
70967;SDS011;58629;48.808;8.820;2023-03-13T04:20:06;1.47;;;0.40;;
70967;SDS011;58629;48.808;8.820;2023-03-13T04:22:32;1.52;;;0.45;;
70967;SDS011;58629;48.808;8.820;2023-03-13T04:24:58;0.90;;;0.50;;
70967;SDS011;58629;48.808;8.820;2023-03-13T04:27:24;1.20;;;0.40;;
70967;SDS011;58629;48.808;8.820;2023-03-13T04:29:49;1.37;;;0.43;;
70967;SDS011;58629;48.808;8.820;2023-03-13T04:32:14;1.67;;;0.50;;
70967;SDS011;58629;48.808;8.820;2023-03-13T04:34:40;1.03;;;0.40;;
70967;SDS011;58629;48.808;8.820;2023-03-13T04:37:05;1.73;;;0.40;;
70967;SDS011;58629;48.808;8.820;2023-03-13T04:39:30;2.53;;;0.50;;
70967;SDS011;58629;48.808;8.820;2023-03-13T04:41:55;2.13;;;1.80;;
70967;SDS011;58629;48.808;8.820;2023-03-13T04:44:21;1.73;;;0.60;;
70967;SDS011;58629;48.808;8.820;2023-03-13T04:46:47;0.70;;;0.50;;
70967;SDS011;58629;48.808;8.820;2023-03-13T04:49:13;1.38;;;0.40;;
70967;SDS011;58629;48.808;8.820;2023-03-13T04:51:39;1.00;;;0.60;;
70967;SDS011;58629;48.808;8.820;2023-03-13T04:54:05;1.13;;;0.40;;
70967;SDS011;58629;48.808;8.820;2023-03-13T04:56:30;0.60;;;0.20;;
70967;SDS011;58629;48.808;8.820;2023-03-13T04:58:56;1.60;;;0.30;;
70967;SDS011;58629;48.808;8.820;2023-03-13T05:01:21;0.63;;;0.30;;
70967;SDS011;58629;48.808;8.820;2023-03-13T05:03:46;0.70;;;0.60;;
70967;SDS011;58629;48.808;8.820;2023-03-13T05:06:11;1.37;;;0.60;;
70967;SDS011;58629;48.808;8.820;2023-03-13T05:08:37;1.17;;;0.40;;
70967;SDS011;58629;48.808;8.820;2023-03-13T05:11:02;0.60;;;0.30;;
70967;SDS011;58629;48.808;8.820;2023-03-13T05:13:28;0.73;;;0.10;;
70967;SDS011;58629;48.808;8.820;2023-03-13T05:15:53;0.50;;;0.30;;
70967;SDS011;58629;48.808;8.820;2023-03-13T05:18:18;0.40;;;0.10;;
70967;SDS011;58629;48.808;8.820;2023-03-13T05:20:44;0.37;;;0.20;;
70967;SDS011;58629;48.808;8.820;2023-03-13T05:23:09;0.73;;;0.20;;
70967;SDS011;58629;48.808;8.820;2023-03-13T05:25:34;1.27;;;0.17;;
70967;SDS011;58629;48.808;8.820;2023-03-13T05:28:00;0.67;;;0.10;;
70967;SDS011;58629;48.808;8.820;2023-03-13T05:30:25;0.63;;;0.30;;
70967;SDS011;58629;48.808;8.820;2023-03-13T05:32:51;0.52;;;0.22;;
70967;SDS011;58629;48.808;8.820;2023-03-13T05:35:16;0.30;;;0.20;;
70967;SDS011;58629;48.808;8.820;2023-03-13T05:37:42;0.70;;;0.30;;
70967;SDS011;58629;48.808;8.820;2023-03-13T05:40:08;0.40;;;0.23;;
70967;SDS011;58629;48.808;8.820;2023-03-13T05:42:34;0.57;;;0.20;;
70967;SDS011;58629;48.808;8.820;2023-03-13T05:44:59;0.30;;;0.20;;
70967;SDS011;58629;48.808;8.820;2023-03-13T05:47:24;1.13;;;0.10;;
70967;SDS011;58629;48.808;8.820;2023-03-13T05:49:49;0.97;;;0.50;;
70967;SDS011;58629;48.808;8.820;2023-03-13T05:52:15;0.27;;;0.20;;
70967;SDS011;58629;48.808;8.820;2023-03-13T05:54:40;0.80;;;0.40;;
70967;SDS011;58629;48.808;8.820;2023-03-13T05:57:05;1.03;;;0.10;;
70967;SDS011;58629;48.808;8.820;2023-03-13T05:59:30;0.70;;;0.10;;
70967;SDS011;58629;48.808;8.820;2023-03-13T06:01:56;0.60;;;0.20;;
70967;SDS011;58629;48.808;8.820;2023-03-13T06:04:21;0.30;;;0.10;;
70967;SDS011;58629;48.808;8.820;2023-03-13T06:06:46;3.03;;;0.20;;
70967;SDS011;58629;48.808;8.820;2023-03-13T06:09:12;0.43;;;0.10;;
70967;SDS011;58629;48.808;8.820;2023-03-13T06:11:37;0.20;;;0.10;;
70967;SDS011;58629;48.808;8.820;2023-03-13T06:14:02;0.00;;;0.00;;
70967;SDS011;58629;48.808;8.820;2023-03-13T06:16:28;0.57;;;0.20;;
70967;SDS011;58629;48.808;8.820;2023-03-13T06:18:53;0.40;;;0.00;;
70967;SDS011;58629;48.808;8.820;2023-03-13T06:21:18;0.77;;;0.10;;
70967;SDS011;58629;48.808;8.820;2023-03-13T06:23:44;1.00;;;0.20;;
70967;SDS011;58629;48.808;8.820;2023-03-13T06:26:09;0.20;;;0.00;;
70967;SDS011;58629;48.808;8.820;2023-03-13T06:28:34;0.20;;;0.10;;
70967;SDS011;58629;48.808;8.820;2023-03-13T06:31:00;0.50;;;0.10;;
70967;SDS011;58629;48.808;8.820;2023-03-13T06:33:27;0.08;;;0.00;;
70967;SDS011;58629;48.808;8.820;2023-03-13T06:35:53;0.57;;;0.00;;
70967;SDS011;58629;48.808;8.820;2023-03-13T06:38:18;0.50;;;0.13;;
70967;SDS011;58629;48.808;8.820;2023-03-13T06:40:43;1.80;;;0.10;;
70967;SDS011;58629;48.808;8.820;2023-03-13T06:43:08;1.10;;;0.87;;
70967;SDS011;58629;48.808;8.820;2023-03-13T06:45:34;0.73;;;0.40;;
70967;SDS011;58629;48.808;8.820;2023-03-13T06:48:00;0.35;;;0.20;;
70967;SDS011;58629;48.808;8.820;2023-03-13T06:50:26;0.37;;;0.10;;
70967;SDS011;58629;48.808;8.820;2023-03-13T06:52:51;1.50;;;1.10;;
70967;SDS011;58629;48.808;8.820;2023-03-13T06:55:17;0.85;;;0.70;;
70967;SDS011;58629;48.808;8.820;2023-03-13T06:57:42;0.20;;;0.20;;
70967;SDS011;58629;48.808;8.820;2023-03-13T07:00:09;0.30;;;0.30;;
70967;SDS011;58629;48.808;8.820;2023-03-13T07:02:35;0.32;;;0.10;;
70967;SDS011;58629;48.808;8.820;2023-03-13T07:05:00;0.63;;;0.00;;
70967;SDS011;58629;48.808;8.820;2023-03-13T07:07:29;0.80;;;0.30;;
70967;SDS011;58629;48.808;8.820;2023-03-13T07:09:56;1.67;;;1.10;;
70967;SDS011;58629;48.808;8.820;2023-03-13T07:12:22;0.25;;;0.20;;
70967;SDS011;58629;48.808;8.820;2023-03-13T07:14:47;0.20;;;0.10;;
70967;SDS011;58629;48.808;8.820;2023-03-13T07:17:12;0.27;;;0.10;;
70967;SDS011;58629;48.808;8.820;2023-03-13T07:19:38;0.00;;;0.00;;
70967;SDS011;58629;48.808;8.820;2023-03-13T07:22:03;0.60;;;0.07;;
70967;SDS011;58629;48.808;8.820;2023-03-13T07:24:28;1.17;;;1.07;;
70967;SDS011;58629;48.808;8.820;2023-03-13T07:26:53;0.37;;;0.10;;
70967;SDS011;58629;48.808;8.820;2023-03-13T07:29:19;0.30;;;0.10;;
70967;SDS011;58629;48.808;8.820;2023-03-13T07:31:44;0.10;;;0.10;;
70967;SDS011;58629;48.808;8.820;2023-03-13T07:34:09;0.63;;;0.30;;
70967;SDS011;58629;48.808;8.820;2023-03-13T07:36:35;0.40;;;0.20;;
70967;SDS011;58629;48.808;8.820;2023-03-13T07:39:00;0.83;;;0.20;;
70967;SDS011;58629;48.808;8.820;2023-03-13T07:41:25;0.60;;;0.60;;
70967;SDS011;58629;48.808;8.820;2023-03-13T07:43:51;0.30;;;0.15;;
70967;SDS011;58629;48.808;8.820;2023-03-13T07:46:17;0.63;;;0.20;;
70967;SDS011;58629;48.808;8.820;2023-03-13T07:48:44;0.40;;;0.10;;
70967;SDS011;58629;48.808;8.820;2023-03-13T07:51:11;0.30;;;0.15;;
70967;SDS011;58629;48.808;8.820;2023-03-13T07:53:39;0.47;;;0.20;;
70967;SDS011;58629;48.808;8.820;2023-03-13T07:56:05;1.08;;;0.25;;
70967;SDS011;58629;48.808;8.820;2023-03-13T07:58:35;0.47;;;0.10;;
70967;SDS011;58629;48.808;8.820;2023-03-13T08:01:09;0.43;;;0.20;;
70967;SDS011;58629;48.808;8.820;2023-03-13T08:03:34;0.40;;;0.10;;
70967;SDS011;58629;48.808;8.820;2023-03-13T08:06:01;0.37;;;0.20;;
70967;SDS011;58629;48.808;8.820;2023-03-13T08:08:28;0.85;;;0.20;;
70967;SDS011;58629;48.808;8.820;2023-03-13T08:10:58;0.57;;;0.20;;
70967;SDS011;58629;48.808;8.820;2023-03-13T08:13:31;0.80;;;0.10;;
70967;SDS011;58629;48.808;8.820;2023-03-13T08:16:06;0.90;;;0.30;;
70967;SDS011;58629;48.808;8.820;2023-03-13T08:18:34;0.65;;;0.20;;
70967;SDS011;58629;48.808;8.820;2023-03-13T08:21:01;0.65;;;0.30;;
70967;SDS011;58629;48.808;8.820;2023-03-13T08:23:31;0.30;;;0.10;;
70967;SDS011;58629;48.808;8.820;2023-03-13T08:28:28;0.52;;;0.30;;
70967;SDS011;58629;48.808;8.820;2023-03-13T08:30:53;0.43;;;0.20;;
70967;SDS011;58629;48.808;8.820;2023-03-13T08:33:18;0.40;;;0.30;;
70967;SDS011;58629;48.808;8.820;2023-03-13T08:35:44;0.33;;;0.20;;
70967;SDS011;58629;48.808;8.820;2023-03-13T08:38:09;0.70;;;0.20;;
70967;SDS011;58629;48.808;8.820;2023-03-13T08:40:34;1.07;;;0.30;;
70967;SDS011;58629;48.808;8.820;2023-03-13T08:43:00;0.57;;;0.20;;
70967;SDS011;58629;48.808;8.820;2023-03-13T08:45:25;0.70;;;0.40;;
70967;SDS011;58629;48.808;8.820;2023-03-13T08:47:53;1.07;;;0.33;;
70967;SDS011;58629;48.808;8.820;2023-03-13T08:50:18;1.40;;;0.30;;
70967;SDS011;58629;48.808;8.820;2023-03-13T08:52:44;1.40;;;0.30;;
70967;SDS011;58629;48.808;8.820;2023-03-13T08:55:09;0.43;;;0.33;;
70967;SDS011;58629;48.808;8.820;2023-03-13T08:57:35;1.03;;;0.40;;
70967;SDS011;58629;48.808;8.820;2023-03-13T09:00:00;1.65;;;0.50;;
70967;SDS011;58629;48.808;8.820;2023-03-13T09:02:25;0.50;;;0.30;;
70967;SDS011;58629;48.808;8.820;2023-03-13T09:04:50;2.13;;;0.50;;
70967;SDS011;58629;48.808;8.820;2023-03-13T09:07:16;1.47;;;0.60;;
70967;SDS011;58629;48.808;8.820;2023-03-13T09:09:41;1.53;;;0.70;;
70967;SDS011;58629;48.808;8.820;2023-03-13T09:12:07;3.22;;;1.15;;
70967;SDS011;58629;48.808;8.820;2023-03-13T09:14:33;2.20;;;0.70;;
70967;SDS011;58629;48.808;8.820;2023-03-13T09:16:58;1.83;;;0.70;;
70967;SDS011;58629;48.808;8.820;2023-03-13T09:19:23;1.20;;;0.70;;
70967;SDS011;58629;48.808;8.820;2023-03-13T09:21:48;3.80;;;0.90;;
70967;SDS011;58629;48.808;8.820;2023-03-13T09:24:14;1.27;;;0.70;;
70967;SDS011;58629;48.808;8.820;2023-03-13T09:26:39;1.70;;;0.60;;
70967;SDS011;58629;48.808;8.820;2023-03-13T09:29:05;1.20;;;0.70;;
70967;SDS011;58629;48.808;8.820;2023-03-13T09:31:30;1.17;;;0.50;;
70967;SDS011;58629;48.808;8.820;2023-03-13T09:33:57;2.50;;;0.80;;
70967;SDS011;58629;48.808;8.820;2023-03-13T09:36:23;3.05;;;0.70;;
70967;SDS011;58629;48.808;8.820;2023-03-13T09:38:49;1.00;;;0.60;;
70967;SDS011;58629;48.808;8.820;2023-03-13T09:46:26;2.53;;;0.80;;
70967;SDS011;58629;48.808;8.820;2023-03-13T09:49:01;2.05;;;0.70;;
70967;SDS011;58629;48.808;8.820;2023-03-13T09:51:36;1.10;;;0.70;;
70967;SDS011;58629;48.808;8.820;2023-03-13T09:56:55;0.95;;;0.60;;
70967;SDS011;58629;48.808;8.820;2023-03-13T09:59:36;0.80;;;0.65;;
70967;SDS011;58629;48.808;8.820;2023-03-13T10:02:54;2.42;;;0.80;;
70967;SDS011;58629;48.808;8.820;2023-03-13T10:05:01;1.40;;;0.80;;
70967;SDS011;58629;48.808;8.820;2023-03-13T10:07:43;0.98;;;0.70;;
70967;SDS011;58629;48.808;8.820;2023-03-13T10:13:12;1.27;;;0.70;;
70967;SDS011;58629;48.808;8.820;2023-03-13T10:16:10;1.30;;;0.80;;
70967;SDS011;58629;48.808;8.820;2023-03-13T10:18:44;1.60;;;0.80;;
70967;SDS011;58629;48.808;8.820;2023-03-13T10:21:17;2.65;;;0.70;;
70967;SDS011;58629;48.808;8.820;2023-03-13T10:23:47;1.13;;;0.70;;
70967;SDS011;58629;48.808;8.820;2023-03-13T10:26:36;2.55;;;0.88;;
70967;SDS011;58629;48.808;8.820;2023-03-13T10:29:21;1.33;;;0.70;;
70967;SDS011;58629;48.808;8.820;2023-03-13T10:35:12;1.10;;;0.80;;
70967;SDS011;58629;48.808;8.820;2023-03-13T10:37:28;2.03;;;1.00;;
70967;SDS011;58629;48.808;8.820;2023-03-13T10:40:09;1.77;;;0.82;;
70967;SDS011;58629;48.808;8.820;2023-03-13T10:42:44;2.38;;;0.90;;
70967;SDS011;58629;48.808;8.820;2023-03-13T10:45:13;2.23;;;1.07;;
70967;SDS011;58629;48.808;8.820;2023-03-13T10:47:40;5.25;;;1.10;;
70967;SDS011;58629;48.808;8.820;2023-03-13T10:50:06;3.72;;;0.90;;
70967;SDS011;58629;48.808;8.820;2023-03-13T10:55:21;1.50;;;1.00;;
70967;SDS011;58629;48.808;8.820;2023-03-13T10:57:58;2.33;;;0.90;;
70967;SDS011;58629;48.808;8.820;2023-03-13T11:02:53;1.75;;;1.00;;
70967;SDS011;58629;48.808;8.820;2023-03-13T11:05:37;1.38;;;0.70;;
70967;SDS011;58629;48.808;8.820;2023-03-13T11:10:57;2.22;;;1.00;;
70967;SDS011;58629;48.808;8.820;2023-03-13T11:13:40;1.60;;;0.87;;
70967;SDS011;58629;48.808;8.820;2023-03-13T11:24:04;1.00;;;0.70;;
70967;SDS011;58629;48.808;8.820;2023-03-13T11:26:36;1.38;;;0.93;;
70967;SDS011;58629;48.808;8.820;2023-03-13T11:29:12;1.07;;;0.70;;
70967;SDS011;58629;48.808;8.820;2023-03-13T11:31:50;1.70;;;1.08;;
70967;SDS011;58629;48.808;8.820;2023-03-13T11:36:59;4.93;;;0.93;;
70967;SDS011;58629;48.808;8.820;2023-03-13T11:42:34;1.30;;;0.90;;
70967;SDS011;58629;48.808;8.820;2023-03-13T11:45:15;1.17;;;0.80;;
70967;SDS011;58629;48.808;8.820;2023-03-13T11:47:57;1.55;;;0.90;;
70967;SDS011;58629;48.808;8.820;2023-03-13T11:53:18;1.13;;;0.80;;
70967;SDS011;58629;48.808;8.820;2023-03-13T11:56:11;2.10;;;0.77;;
70967;SDS011;58629;48.808;8.820;2023-03-13T11:58:56;1.75;;;0.90;;
70967;SDS011;58629;48.808;8.820;2023-03-13T12:01:33;1.00;;;0.73;;
70967;SDS011;58629;48.808;8.820;2023-03-13T12:06:49;1.80;;;0.90;;
70967;SDS011;58629;48.808;8.820;2023-03-13T12:09:25;1.17;;;0.70;;
70967;SDS011;58629;48.808;8.820;2023-03-13T12:14:47;2.92;;;0.90;;
70967;SDS011;58629;48.808;8.820;2023-03-13T12:17:35;1.52;;;0.90;;
70967;SDS011;58629;48.808;8.820;2023-03-13T12:20:10;2.00;;;0.80;;
70967;SDS011;58629;48.808;8.820;2023-03-13T12:22:47;3.03;;;1.00;;
70967;SDS011;58629;48.808;8.820;2023-03-13T12:25:26;1.55;;;0.90;;
70967;SDS011;58629;48.808;8.820;2023-03-13T12:28:03;1.38;;;1.10;;
70967;SDS011;58629;48.808;8.820;2023-03-13T12:30:44;1.27;;;0.80;;
70967;SDS011;58629;48.808;8.820;2023-03-13T12:33:20;1.88;;;1.00;;
70967;SDS011;58629;48.808;8.820;2023-03-13T12:35:56;1.77;;;0.90;;
70967;SDS011;58629;48.808;8.820;2023-03-13T12:38:52;1.60;;;0.95;;
70967;SDS011;58629;48.808;8.820;2023-03-13T12:41:32;1.33;;;0.88;;
70967;SDS011;58629;48.808;8.820;2023-03-13T12:44:06;1.38;;;0.80;;
70967;SDS011;58629;48.808;8.820;2023-03-13T12:46:36;1.42;;;1.00;;
70967;SDS011;58629;48.808;8.820;2023-03-13T12:52:38;2.45;;;0.70;;
70967;SDS011;58629;48.808;8.820;2023-03-13T13:00:30;1.52;;;0.70;;
70967;SDS011;58629;48.808;8.820;2023-03-13T13:03:14;1.67;;;0.60;;
70967;SDS011;58629;48.808;8.820;2023-03-13T13:05:59;0.90;;;0.85;;
70967;SDS011;58629;48.808;8.820;2023-03-13T13:08:30;1.00;;;0.70;;
70967;SDS011;58629;48.808;8.820;2023-03-13T13:13:59;1.38;;;0.80;;
70967;SDS011;58629;48.808;8.820;2023-03-13T13:16:25;2.40;;;0.60;;
70967;SDS011;58629;48.808;8.820;2023-03-13T13:18:52;1.13;;;0.70;;
70967;SDS011;58629;48.808;8.820;2023-03-13T13:21:18;1.03;;;0.70;;
70967;SDS011;58629;48.808;8.820;2023-03-13T13:23:51;1.17;;;0.70;;
70967;SDS011;58629;48.808;8.820;2023-03-13T13:28:53;1.40;;;0.60;;
70967;SDS011;58629;48.808;8.820;2023-03-13T13:36:51;2.50;;;0.52;;
70967;SDS011;58629;48.808;8.820;2023-03-13T13:41:58;1.13;;;0.50;;
70967;SDS011;58629;48.808;8.820;2023-03-13T13:44:24;1.20;;;0.60;;
70967;SDS011;58629;48.808;8.820;2023-03-13T13:46:52;0.57;;;0.50;;
70967;SDS011;58629;48.808;8.820;2023-03-13T13:49:21;1.15;;;0.47;;
70967;SDS011;58629;48.808;8.820;2023-03-13T13:56:58;2.00;;;0.43;;
70967;SDS011;58629;48.808;8.820;2023-03-13T13:59:30;0.32;;;0.32;;
70967;SDS011;58629;48.808;8.820;2023-03-13T14:12:54;0.65;;;0.50;;
70967;SDS011;58629;48.808;8.820;2023-03-13T14:15:28;0.68;;;0.47;;
70967;SDS011;58629;48.808;8.820;2023-03-13T14:17:56;1.77;;;0.60;;
70967;SDS011;58629;48.808;8.820;2023-03-13T14:22:59;2.00;;;0.70;;
70967;SDS011;58629;48.808;8.820;2023-03-13T14:25:45;0.95;;;0.50;;
70967;SDS011;58629;48.808;8.820;2023-03-13T14:28:24;1.52;;;0.40;;
70967;SDS011;58629;48.808;8.820;2023-03-13T14:30:52;1.38;;;0.50;;
70967;SDS011;58629;48.808;8.820;2023-03-13T14:33:20;1.50;;;0.47;;
70967;SDS011;58629;48.808;8.820;2023-03-13T14:35:46;0.90;;;0.40;;
70967;SDS011;58629;48.808;8.820;2023-03-13T14:38:19;0.70;;;0.47;;
70967;SDS011;58629;48.808;8.820;2023-03-13T14:40:47;0.88;;;0.43;;
70967;SDS011;58629;48.808;8.820;2023-03-13T14:43:25;0.60;;;0.50;;
70967;SDS011;58629;48.808;8.820;2023-03-13T14:45:56;2.38;;;0.63;;
70967;SDS011;58629;48.808;8.820;2023-03-13T14:48:25;1.55;;;0.68;;
70967;SDS011;58629;48.808;8.820;2023-03-13T14:51:07;0.75;;;0.50;;
70967;SDS011;58629;48.808;8.820;2023-03-13T14:53:35;2.15;;;0.70;;
70967;SDS011;58629;48.808;8.820;2023-03-13T14:56:10;1.50;;;0.63;;
70967;SDS011;58629;48.808;8.820;2023-03-13T14:58:38;1.85;;;0.60;;
70967;SDS011;58629;48.808;8.820;2023-03-13T15:01:13;1.70;;;0.50;;
70967;SDS011;58629;48.808;8.820;2023-03-13T15:03:47;1.70;;;0.70;;
70967;SDS011;58629;48.808;8.820;2023-03-13T15:08:43;2.42;;;0.68;;
70967;SDS011;58629;48.808;8.820;2023-03-13T15:13:53;1.08;;;0.55;;
70967;SDS011;58629;48.808;8.820;2023-03-13T15:16:20;1.47;;;0.73;;
70967;SDS011;58629;48.808;8.820;2023-03-13T15:18:47;1.52;;;0.68;;
70967;SDS011;58629;48.808;8.820;2023-03-13T15:23:52;1.40;;;0.40;;
70967;SDS011;58629;48.808;8.820;2023-03-13T15:26:20;1.38;;;0.50;;
70967;SDS011;58629;48.808;8.820;2023-03-13T15:28:45;1.80;;;0.70;;
70967;SDS011;58629;48.808;8.820;2023-03-13T15:31:11;0.77;;;0.50;;
70967;SDS011;58629;48.808;8.820;2023-03-13T15:33:38;2.35;;;0.60;;
70967;SDS011;58629;48.808;8.820;2023-03-13T15:36:04;0.93;;;0.55;;
70967;SDS011;58629;48.808;8.820;2023-03-13T15:38:29;1.37;;;0.60;;
70967;SDS011;58629;48.808;8.820;2023-03-13T15:40:54;0.60;;;0.40;;
70967;SDS011;58629;48.808;8.820;2023-03-13T15:43:20;2.00;;;0.60;;
70967;SDS011;58629;48.808;8.820;2023-03-13T15:45:46;1.67;;;0.55;;
70967;SDS011;58629;48.808;8.820;2023-03-13T15:50:41;0.50;;;0.50;;
70967;SDS011;58629;48.808;8.820;2023-03-13T15:53:15;1.40;;;0.57;;
70967;SDS011;58629;48.808;8.820;2023-03-13T15:55:45;2.17;;;0.50;;
70967;SDS011;58629;48.808;8.820;2023-03-13T15:58:12;0.68;;;0.40;;
70967;SDS011;58629;48.808;8.820;2023-03-13T16:00:38;0.80;;;0.52;;
70967;SDS011;58629;48.808;8.820;2023-03-13T16:03:04;1.00;;;0.57;;
70967;SDS011;58629;48.808;8.820;2023-03-13T16:05:29;1.53;;;0.47;;
70967;SDS011;58629;48.808;8.820;2023-03-13T16:07:55;0.57;;;0.43;;
70967;SDS011;58629;48.808;8.820;2023-03-13T16:10:22;0.70;;;0.50;;
70967;SDS011;58629;48.808;8.820;2023-03-13T16:12:49;1.05;;;0.55;;
70967;SDS011;58629;48.808;8.820;2023-03-13T16:15:15;2.07;;;0.60;;
70967;SDS011;58629;48.808;8.820;2023-03-13T16:17:40;1.00;;;0.70;;
70967;SDS011;58629;48.808;8.820;2023-03-13T16:20:10;0.80;;;0.50;;
70967;SDS011;58629;48.808;8.820;2023-03-13T16:22:40;1.30;;;0.70;;
70967;SDS011;58629;48.808;8.820;2023-03-13T16:25:05;0.87;;;0.50;;
70967;SDS011;58629;48.808;8.820;2023-03-13T16:27:31;1.23;;;0.60;;
70967;SDS011;58629;48.808;8.820;2023-03-13T16:29:56;1.67;;;0.67;;
70967;SDS011;58629;48.808;8.820;2023-03-13T16:32:22;0.80;;;0.60;;
70967;SDS011;58629;48.808;8.820;2023-03-13T16:34:49;1.13;;;0.60;;
70967;SDS011;58629;48.808;8.820;2023-03-13T16:37:15;1.30;;;0.60;;
70967;SDS011;58629;48.808;8.820;2023-03-13T16:39:42;0.90;;;0.60;;
70967;SDS011;58629;48.808;8.820;2023-03-13T16:42:09;1.73;;;0.63;;
70967;SDS011;58629;48.808;8.820;2023-03-13T16:44:34;0.80;;;0.50;;